Time;durP1;ratioP1;P1;durP2;ratioP2;P2;SDS_P1;SDS_P2;PMS_P1;PMS_P2;Temp;Humidity;BMP_temperature;BMP_pressure;BME280_temperature;BME280_humidity;BME280_pressure;Samples;Min_cycle;Max_cycle;Signal;HPM_P1;HPM_P2
2021/09/15 00:00:45;;;;;;;5.40;3.93;;;16.60;99.90;;;;;;5122387;27;20189;-59
2021/09/15 00:03:12;;;;;;;6.10;3.80;;;16.60;99.90;;;;;;5126833;27;20192;-49
2021/09/15 00:05:39;;;;;;;4.40;3.80;;;16.60;99.90;;;;;;5119944;27;20303;-58
2021/09/15 00:08:07;;;;;;;5.70;4.30;;;16.60;99.90;;;;;;5125133;27;20192;-50
2021/09/15 00:10:34;;;;;;;4.53;4.13;;;16.60;99.90;;;;;;5125266;27;20207;-57
2021/09/15 00:13:01;;;;;;;5.40;3.60;;;16.50;99.90;;;;;;5110274;27;20212;-47
2021/09/15 00:15:27;;;;;;;5.70;4.13;;;16.50;99.90;;;;;;5126065;27;20208;-60
2021/09/15 00:17:54;;;;;;;8.90;4.07;;;16.50;99.90;;;;;;5122760;27;20185;-49
2021/09/15 00:20:21;;;;;;;4.27;3.87;;;16.50;99.90;;;;;;5126137;27;20189;-48
2021/09/15 00:22:47;;;;;;;4.70;4.30;;;16.50;99.90;;;;;;5117721;27;20196;-54
2021/09/15 00:25:15;;;;;;;4.40;4.10;;;16.50;99.90;;;;;;5126139;27;20216;-53
2021/09/15 00:27:42;;;;;;;5.00;4.23;;;16.50;99.90;;;;;;5123012;27;20209;-60
2021/09/15 00:30:10;;;;;;;4.43;4.03;;;16.40;99.90;;;;;;5113436;27;20196;-50
2021/09/15 00:32:36;;;;;;;4.43;4.10;;;16.40;99.90;;;;;;5124135;27;20657;-59
2021/09/15 00:35:06;;;;;;;4.10;3.80;;;16.40;99.90;;;;;;5124086;27;20213;-49
2021/09/15 00:37:32;;;;;;;4.13;3.77;;;16.40;99.90;;;;;;5120688;27;20556;-58
2021/09/15 00:39:59;;;;;;;5.63;4.40;;;16.40;99.90;;;;;;5123112;27;20185;-49
2021/09/15 00:42:28;;;;;;;4.37;3.97;;;16.40;99.90;;;;;;5124322;27;20191;-54
2021/09/15 00:44:54;;;;;;;4.73;4.27;;;16.30;99.90;;;;;;5116580;27;20289;-51
2021/09/15 00:47:21;;;;;;;6.60;4.13;;;16.30;99.90;;;;;;5114346;27;20220;-53
2021/09/15 00:49:48;;;;;;;5.00;4.20;;;16.30;99.90;;;;;;5125049;27;20189;-53
2021/09/15 00:52:15;;;;;;;5.17;4.53;;;16.30;99.90;;;;;;5118408;27;20196;-59
2021/09/15 00:54:42;;;;;;;4.73;4.30;;;16.30;99.90;;;;;;5124888;27;20181;-48
2021/09/15 00:57:09;;;;;;;4.47;4.03;;;16.30;99.90;;;;;;5122424;27;20709;-59
2021/09/15 00:59:42;;;;;;;4.93;3.97;;;16.30;99.90;;;;;;5122928;27;20195;-55
2021/09/15 01:02:09;;;;;;;7.43;3.80;;;16.20;99.90;;;;;;5110266;27;20546;-58
2021/09/15 01:04:36;;;;;;;4.67;4.27;;;16.20;99.90;;;;;;5122191;27;20275;-48
2021/09/15 01:07:05;;;;;;;4.70;4.30;;;16.20;99.90;;;;;;5120139;27;20208;-58
2021/09/15 01:09:36;;;;;;;4.77;4.20;;;16.20;99.90;;;;;;5123003;27;20173;-52
2021/09/15 01:12:09;;;;;;;5.03;4.23;;;16.20;99.90;;;;;;5116118;27;21566;-59
2021/09/15 01:15:08;;;;;;;4.60;4.30;;;16.20;99.90;;;;;;5090838;27;20293;-60
2021/09/15 01:17:56;;;;;;;8.07;4.87;;;16.20;99.90;;;;;;5121469;27;20197;-52
2021/09/15 01:20:42;;;;;;;7.40;4.90;;;16.20;99.90;;;;;;5124057;27;20582;-54
2021/09/15 01:23:37;;;;;;;5.47;4.50;;;16.20;99.90;;;;;;5113663;27;20200;-53
2021/09/15 01:26:21;;;;;;;7.07;4.47;;;16.10;99.90;;;;;;5119477;27;20217;-60
2021/09/15 01:29:19;;;;;;;5.10;4.67;;;16.10;99.90;;;;;;5111126;27;20232;-60
2021/09/15 01:32:00;;;;;;;5.80;4.70;;;16.20;99.90;;;;;;5107813;27;20231;-60
2021/09/15 01:34:35;;;;;;;8.87;5.97;;;16.10;99.90;;;;;;5120514;27;20192;-48
2021/09/15 01:37:07;;;;;;;5.00;4.60;;;16.10;99.90;;;;;;5122981;27;20574;-59
2021/09/15 01:39:36;;;;;;;6.10;5.50;;;16.10;99.90;;;;;;5118126;27;20281;-51
2021/09/15 01:42:05;;;;;;;6.23;5.00;;;16.10;99.90;;;;;;5118561;27;20220;-58
2021/09/15 01:44:33;;;;;;;5.33;4.83;;;16.10;99.90;;;;;;5133743;27;20192;-48
2021/09/15 01:47:00;;;;;;;5.40;4.97;;;16.10;99.90;;;;;;5114030;27;20716;-49
2021/09/15 01:49:29;;;;;;;5.20;4.80;;;16.10;99.90;;;;;;5119361;27;20199;-52
2021/09/15 01:51:56;;;;;;;6.10;5.10;;;16.10;99.90;;;;;;5124943;27;20192;-47
2021/09/15 01:54:24;;;;;;;5.93;5.03;;;16.10;99.90;;;;;;5114949;27;20196;-49
2021/09/15 01:56:51;;;;;;;6.33;5.40;;;16.10;99.90;;;;;;5123097;27;20247;-49
2021/09/15 01:59:37;;;;;;;5.40;4.90;;;16.10;99.90;;;;;;5120973;27;20200;-54
2021/09/15 02:02:22;;;;;;;5.77;5.27;;;16.10;99.90;;;;;;5108771;27;20207;-51
2021/09/15 02:04:55;;;;;;;5.53;4.97;;;16.10;99.90;;;;;;5123181;27;20288;-49
2021/09/15 02:07:51;;;;;;;7.10;5.33;;;16.10;99.90;;;;;;5114477;27;20224;-54
2021/09/15 02:10:38;;;;;;;5.30;4.80;;;16.10;99.90;;;;;;5117917;27;20196;-49
2021/09/15 02:13:06;;;;;;;4.87;4.47;;;16.10;99.90;;;;;;5121665;27;20790;-55
2021/09/15 02:15:36;;;;;;;6.30;5.10;;;16.10;99.90;;;;;;5136249;27;20207;-48
2021/09/15 02:18:02;;;;;;;7.43;5.20;;;16.10;99.90;;;;;;5113740;27;20196;-58
2021/09/15 02:20:51;;;;;;;7.47;5.03;;;16.10;99.90;;;;;;5123038;28;20562;-52
2021/09/15 02:23:30;;;;;;;6.17;5.30;;;16.10;99.90;;;;;;5119797;28;20200;-48
2021/09/15 02:26:26;;;;;;;6.53;4.80;;;16.00;99.90;;;;;;5115743;27;20216;-55
2021/09/15 02:28:55;;;;;;;7.33;5.70;;;16.00;99.90;;;;;;5122695;28;20228;-48
2021/09/15 02:31:37;;;;;;;5.53;4.90;;;16.00;99.90;;;;;;5121387;28;20184;-52
2021/09/15 02:34:19;;;;;;;7.23;5.17;;;16.00;99.90;;;;;;5103757;27;20730;-59
2021/09/15 02:37:04;;;;;;;5.50;5.07;;;16.00;99.90;;;;;;5122226;28;20216;-59
2021/09/15 02:39:50;;;;;;;5.87;5.33;;;16.00;99.90;;;;;;5122922;28;20220;-49
2021/09/15 02:42:25;;;;;;;5.93;5.37;;;16.00;99.90;;;;;;5109125;27;20223;-53
2021/09/15 02:45:09;;;;;;;5.57;5.07;;;16.00;99.90;;;;;;5133413;27;20204;-58
2021/09/15 02:47:44;;;;;;;7.20;5.87;;;16.00;99.90;;;;;;5143387;27;20218;-52
2021/09/15 02:50:26;;;;;;;7.20;5.07;;;16.00;99.90;;;;;;5107641;27;20203;-51
2021/09/15 02:53:17;;;;;;;6.00;4.50;;;16.00;99.90;;;;;;5115117;28;20204;-59
2021/09/15 02:55:58;;;;;;;6.47;5.87;;;16.00;99.90;;;;;;5122266;28;20242;-48
2021/09/15 02:58:48;;;;;;;6.87;5.50;;;16.00;99.90;;;;;;5102090;28;20204;-48
2021/09/15 03:01:32;;;;;;;8.23;5.60;;;16.00;99.90;;;;;;5099526;28;20220;-48
2021/09/15 03:04:13;;;;;;;9.23;5.80;;;16.00;99.90;;;;;;5097874;27;20207;-59
2021/09/15 03:06:58;;;;;;;6.27;5.37;;;16.00;99.90;;;;;;5123870;27;20216;-49
2021/09/15 03:09:31;;;;;;;5.90;5.47;;;16.00;99.90;;;;;;5119797;28;20197;-47
2021/09/15 03:11:58;;;;;;;9.20;6.23;;;16.00;99.90;;;;;;5117715;27;20200;-48
2021/09/15 03:14:26;;;;;;;7.40;5.60;;;16.00;99.90;;;;;;5134080;27;20186;-55
2021/09/15 03:16:54;;;;;;;6.97;5.87;;;16.00;99.90;;;;;;5132560;27;20209;-51
2021/09/15 03:19:21;;;;;;;6.87;5.90;;;16.00;99.90;;;;;;5128412;27;23540;-59
2021/09/15 03:21:48;;;;;;;7.53;5.97;;;15.90;99.90;;;;;;5126286;27;20208;-49
2021/09/15 03:24:15;;;;;;;6.77;5.70;;;15.90;99.90;;;;;;5123557;27;20553;-59
2021/09/15 03:26:47;;;;;;;6.80;5.77;;;15.90;99.90;;;;;;5125918;27;20331;-51
2021/09/15 03:29:14;;;;;;;7.43;6.13;;;15.90;99.90;;;;;;5118365;27;20225;-58
2021/09/15 03:31:42;;;;;;;7.53;6.23;;;15.90;99.90;;;;;;5125125;27;20196;-51
2021/09/15 03:34:09;;;;;;;7.53;6.30;;;15.90;99.90;;;;;;5120661;27;20588;-60
2021/09/15 03:36:36;;;;;;;7.10;6.40;;;15.90;99.90;;;;;;5118445;27;20241;-51
2021/09/15 03:39:03;;;;;;;6.73;6.03;;;15.80;99.90;;;;;;5125121;27;20197;-60
2021/09/15 03:41:30;;;;;;;10.07;6.50;;;15.80;99.90;;;;;;5122855;27;20437;-50
2021/09/15 03:43:58;;;;;;;8.53;6.07;;;15.80;99.90;;;;;;5120751;27;20204;-50
2021/09/15 03:46:25;;;;;;;7.93;6.30;;;15.80;99.90;;;;;;5128278;27;20201;-54
2021/09/15 03:48:54;;;;;;;7.00;6.30;;;15.80;99.90;;;;;;5143519;27;20700;-49
2021/09/15 03:51:20;;;;;;;7.57;6.87;;;15.80;99.90;;;;;;5116398;27;20283;-57
2021/09/15 03:53:47;;;;;;;9.87;7.50;;;15.80;99.90;;;;;;5125517;27;20192;-56
2021/09/15 03:56:14;;;;;;;8.53;7.73;;;15.70;99.90;;;;;;5122609;27;20220;-59
2021/09/15 03:58:43;;;;;;;8.27;7.47;;;15.70;99.90;;;;;;5120019;27;20196;-48
2021/09/15 04:01:10;;;;;;;9.17;7.80;;;15.60;99.90;;;;;;5123536;27;20235;-58
2021/09/15 04:03:37;;;;;;;7.90;7.13;;;15.60;99.90;;;;;;5123727;27;20184;-49
2021/09/15 04:06:05;;;;;;;10.00;7.27;;;15.60;99.90;;;;;;5122657;27;20303;-61
2021/09/15 04:08:32;;;;;;;10.27;7.57;;;15.60;99.90;;;;;;5111466;27;20240;-49
2021/09/15 04:10:59;;;;;;;9.20;7.40;;;15.50;99.90;;;;;;5124670;27;20211;-51
2021/09/15 04:13:26;;;;;;;8.20;6.93;;;15.50;99.90;;;;;;5118764;27;20256;-52
2021/09/15 04:15:52;;;;;;;10.23;7.17;;;15.50;99.90;;;;;;5142682;27;20212;-48
2021/09/15 04:18:19;;;;;;;8.07;7.13;;;15.40;99.90;;;;;;5143275;27;20185;-57
2021/09/15 04:20:47;;;;;;;8.43;6.73;;;15.40;99.90;;;;;;5145745;27;20203;-52
2021/09/15 04:23:18;;;;;;;10.80;7.47;;;15.40;99.90;;;;;;5111265;27;20266;-59
2021/09/15 04:31:22;;;;;;;8.23;7.53;;;15.40;99.90;;;;;;5119175;27;20203;-59
2021/09/15 04:33:49;;;;;;;10.33;8.10;;;15.40;99.90;;;;;;5116934;27;20196;-52
2021/09/15 04:36:16;;;;;;;8.37;7.57;;;15.40;99.90;;;;;;5116181;27;20297;-48
2021/09/15 04:38:44;;;;;;;8.33;7.43;;;15.40;99.90;;;;;;5103907;27;20216;-52
2021/09/15 04:41:13;;;;;;;9.80;7.80;;;15.40;99.90;;;;;;5110568;27;20918;-58
2021/09/15 04:43:42;;;;;;;8.23;7.43;;;15.40;99.90;;;;;;5110876;27;20197;-50
2021/09/15 04:46:09;;;;;;;8.00;7.20;;;15.50;99.90;;;;;;5114323;27;20217;-60
2021/09/15 04:48:37;;;;;;;10.23;7.40;;;15.50;99.90;;;;;;5114327;27;20235;-57
2021/09/15 04:51:04;;;;;;;8.47;7.60;;;15.50;99.90;;;;;;5124381;27;20542;-47
2021/09/15 04:53:31;;;;;;;8.50;7.60;;;15.50;99.90;;;;;;5103018;27;20205;-60
2021/09/15 04:55:59;;;;;;;11.40;7.80;;;15.50;99.90;;;;;;5121077;27;20276;-60
2021/09/15 04:58:26;;;;;;;8.70;7.80;;;15.40;99.90;;;;;;5122264;27;20192;-57
2021/09/15 05:00:53;;;;;;;10.00;7.90;;;15.40;99.90;;;;;;5117726;27;21392;-49
2021/09/15 05:03:20;;;;;;;9.30;8.30;;;15.40;99.90;;;;;;5124008;27;20543;-58
2021/09/15 05:05:46;;;;;;;10.10;7.90;;;15.50;99.90;;;;;;5117415;27;20220;-47
2021/09/15 05:08:17;;;;;;;8.40;7.60;;;15.50;99.90;;;;;;5116182;27;20728;-54
2021/09/15 05:10:44;;;;;;;9.70;7.67;;;15.50;99.90;;;;;;5104950;27;20901;-48
2021/09/15 05:13:13;;;;;;;8.83;7.87;;;15.50;99.90;;;;;;5118171;27;20196;-53
2021/09/15 05:15:42;;;;;;;9.33;8.43;;;15.40;99.90;;;;;;5121208;27;20948;-47
2021/09/15 05:18:10;;;;;;;9.03;7.87;;;15.40;99.90;;;;;;5108339;27;20184;-47
2021/09/15 05:20:37;;;;;;;9.30;8.47;;;15.50;99.90;;;;;;5102581;27;20212;-57
2021/09/15 05:23:04;;;;;;;9.73;8.10;;;15.50;99.90;;;;;;5114622;27;20204;-56
2021/09/15 05:25:31;;;;;;;9.87;8.30;;;15.50;99.90;;;;;;5108519;27;20224;-57
2021/09/15 05:27:59;;;;;;;8.10;7.30;;;15.40;99.90;;;;;;5121716;27;20218;-50
2021/09/15 05:30:29;;;;;;;11.40;8.93;;;15.40;99.90;;;;;;5116009;27;20668;-58
2021/09/15 05:32:59;;;;;;;9.83;8.53;;;15.40;99.90;;;;;;5111142;27;20223;-49
2021/09/15 05:35:26;;;;;;;9.10;8.23;;;15.40;99.90;;;;;;5120342;27;20557;-58
2021/09/15 05:37:57;;;;;;;10.10;7.97;;;15.40;99.90;;;;;;5116828;27;20200;-48
2021/09/15 05:40:24;;;;;;;8.83;7.80;;;15.40;99.90;;;;;;5108392;27;20204;-59
2021/09/15 05:42:51;;;;;;;9.43;8.40;;;15.40;99.90;;;;;;5114627;27;20866;-47
2021/09/15 05:45:20;;;;;;;8.63;7.83;;;15.40;99.90;;;;;;5110236;27;20221;-57
2021/09/15 05:47:48;;;;;;;9.37;8.43;;;15.40;99.90;;;;;;5105567;27;20934;-50
2021/09/15 05:50:15;;;;;;;11.53;8.67;;;15.40;99.90;;;;;;5123734;27;20199;-49
2021/09/15 05:52:45;;;;;;;9.63;8.70;;;15.40;99.90;;;;;;5107305;27;20181;-48
2021/09/15 05:55:12;;;;;;;9.70;8.80;;;15.40;99.90;;;;;;5114371;27;20573;-49
2021/09/15 05:57:39;;;;;;;9.00;8.10;;;15.40;99.90;;;;;;5114568;27;20213;-52
2021/09/15 06:00:08;;;;;;;9.00;8.10;;;15.40;99.90;;;;;;5117539;27;20593;-52
2021/09/15 06:02:50;;;;;;;9.27;8.10;;;15.40;99.90;;;;;;5106251;27;20208;-53
2021/09/15 06:05:35;;;;;;;11.57;8.37;;;15.40;99.90;;;;;;5112357;27;20305;-57
2021/09/15 06:08:02;;;;;;;13.07;8.77;;;15.40;99.90;;;;;;5113575;27;20219;-52
2021/09/15 06:10:29;;;;;;;9.10;8.17;;;15.40;99.90;;;;;;5117248;27;20203;-58
2021/09/15 06:12:56;;;;;;;9.37;8.37;;;15.50;99.90;;;;;;5103807;27;20331;-51
2021/09/15 06:15:22;;;;;;;9.00;7.67;;;15.50;99.90;;;;;;5115218;28;20225;-55
2021/09/15 06:17:53;;;;;;;9.80;8.80;;;15.50;99.90;;;;;;5118009;28;20184;-54
2021/09/15 06:20:20;;;;;;;10.27;8.50;;;15.50;99.90;;;;;;5112590;27;20201;-58
2021/09/15 06:23:11;;;;;;;11.30;8.40;;;15.60;99.90;;;;;;5113078;28;20201;-49
2021/09/15 06:25:52;;;;;;;13.40;8.07;;;15.60;99.90;;;;;;5115976;28;20499;-50
2021/09/15 06:28:19;;;;;;;9.77;8.23;;;15.60;99.90;;;;;;5108753;27;20220;-58
2021/09/15 06:30:47;;;;;;;9.23;8.13;;;15.60;99.90;;;;;;5108788;27;20276;-48
2021/09/15 06:33:16;;;;;;;10.47;8.23;;;15.60;99.90;;;;;;5116266;27;20208;-47
2021/09/15 06:35:42;;;;;;;9.27;8.37;;;15.70;99.90;;;;;;5101046;27;20991;-50
2021/09/15 06:38:11;;;;;;;9.37;7.50;;;15.70;99.90;;;;;;5119297;27;20192;-57
2021/09/15 06:40:37;;;;;;;8.80;8.00;;;15.70;99.90;;;;;;5116927;27;20317;-50
2021/09/15 06:43:04;;;;;;;9.37;8.27;;;15.70;99.90;;;;;;5125135;27;20200;-57
2021/09/15 06:45:31;;;;;;;10.57;9.43;;;15.70;99.90;;;;;;5101917;27;20221;-47
2021/09/15 06:47:58;;;;;;;9.50;8.60;;;15.70;99.90;;;;;;5126596;27;20212;-49
2021/09/15 06:50:26;;;;;;;9.10;8.20;;;15.70;99.90;;;;;;5130686;27;20223;-52
2021/09/15 06:52:54;;;;;;;9.07;8.17;;;15.80;99.90;;;;;;5148558;27;20192;-52
2021/09/15 06:55:23;;;;;;;13.30;9.30;;;15.80;99.90;;;;;;5111916;27;20217;-59
2021/09/15 06:57:50;;;;;;;15.23;9.53;;;15.80;99.90;;;;;;5116515;27;20204;-47
2021/09/15 07:00:18;;;;;;;11.03;9.37;;;15.90;99.90;;;;;;5110786;27;20273;-57
2021/09/15 07:02:45;;;;;;;9.97;8.97;;;15.90;99.90;;;;;;5123299;27;20658;-49
2021/09/15 07:05:12;;;;;;;9.30;8.47;;;15.90;99.90;;;;;;5114470;27;20200;-59
2021/09/15 07:07:41;;;;;;;9.03;8.17;;;15.90;99.90;;;;;;5121435;27;20196;-49
2021/09/15 07:10:10;;;;;;;9.43;8.47;;;15.90;99.90;;;;;;5113635;27;20225;-57
2021/09/15 07:12:38;;;;;;;9.03;8.13;;;15.90;99.90;;;;;;5119667;27;20205;-52
2021/09/15 07:15:05;;;;;;;8.37;7.57;;;15.90;99.90;;;;;;5111466;27;20204;-57
2021/09/15 07:17:32;;;;;;;11.20;9.43;;;15.90;99.90;;;;;;5126434;27;20205;-47
2021/09/15 07:19:59;;;;;;;11.53;9.30;;;15.90;99.90;;;;;;5123388;27;20200;-47
2021/09/15 07:22:25;;;;;;;10.23;9.33;;;16.00;99.90;;;;;;5127991;27;20196;-49
2021/09/15 07:24:53;;;;;;;13.87;9.73;;;16.00;99.90;;;;;;5110023;27;20209;-47
2021/09/15 07:27:20;;;;;;;10.10;8.97;;;16.00;99.90;;;;;;5106800;27;20213;-60
2021/09/15 07:29:47;;;;;;;13.60;9.70;;;16.00;99.90;;;;;;5118370;27;20213;-48
2021/09/15 07:32:13;;;;;;;10.43;9.43;;;16.00;99.90;;;;;;5109459;27;20205;-59
2021/09/15 07:34:44;;;;;;;15.00;10.00;;;15.90;99.90;;;;;;5113829;27;20677;-47
2021/09/15 07:37:11;;;;;;;10.97;9.70;;;15.90;99.90;;;;;;5113682;27;20226;-55
2021/09/15 07:39:38;;;;;;;10.93;9.23;;;15.90;99.90;;;;;;5124634;27;20191;-52
2021/09/15 07:42:06;;;;;;;10.80;9.30;;;15.90;99.90;;;;;;5124560;27;20276;-58
2021/09/15 07:44:33;;;;;;;10.93;9.20;;;15.90;99.90;;;;;;5122982;27;20898;-48
2021/09/15 07:46:59;;;;;;;10.93;9.70;;;15.90;99.90;;;;;;5090805;27;20225;-47
2021/09/15 07:49:26;;;;;;;11.77;10.10;;;16.00;99.90;;;;;;5115768;27;20470;-53
2021/09/15 07:51:53;;;;;;;11.33;10.20;;;16.00;99.90;;;;;;5114882;27;20205;-57
2021/09/15 07:54:19;;;;;;;11.00;9.57;;;16.10;99.90;;;;;;5112630;27;20220;-46
2021/09/15 07:56:47;;;;;;;12.43;9.63;;;16.10;99.90;;;;;;5107382;27;20698;-55
2021/09/15 07:59:14;;;;;;;13.07;10.60;;;16.10;99.90;;;;;;5108844;27;20535;-49
2021/09/15 08:01:41;;;;;;;12.73;11.43;;;16.10;99.90;;;;;;5102135;27;20204;-48
2021/09/15 08:04:08;;;;;;;12.30;10.93;;;16.10;99.90;;;;;;5120664;27;20670;-48
2021/09/15 08:06:34;;;;;;;12.30;9.93;;;16.10;99.90;;;;;;5118949;27;20286;-53
2021/09/15 08:09:01;;;;;;;12.70;10.33;;;16.20;99.90;;;;;;5113478;27;20217;-49
2021/09/15 08:11:27;;;;;;;17.10;11.00;;;16.10;99.90;;;;;;5106180;27;20314;-60
2021/09/15 08:13:54;;;;;;;11.67;10.50;;;16.10;99.90;;;;;;5109778;27;20208;-61
2021/09/15 08:16:22;;;;;;;12.73;10.90;;;16.10;99.90;;;;;;5111926;27;20219;-62
2021/09/15 08:18:49;;;;;;;13.83;11.03;;;16.10;99.90;;;;;;5111414;27;20341;-53
2021/09/15 08:21:15;;;;;;;11.87;10.43;;;16.10;99.90;;;;;;5123883;27;20233;-58
2021/09/15 08:23:42;;;;;;;15.13;11.03;;;16.10;99.90;;;;;;5105883;27;20701;-51
2021/09/15 08:26:08;;;;;;;15.47;11.33;;;16.10;99.90;;;;;;5112601;27;20327;-50
2021/09/15 08:28:37;;;;;;;12.50;11.20;;;16.10;99.90;;;;;;5105394;27;20208;-52
2021/09/15 08:31:03;;;;;;;13.37;11.07;;;16.10;99.90;;;;;;5116073;27;20587;-50
2021/09/15 08:33:31;;;;;;;13.27;11.43;;;16.00;99.90;;;;;;5093387;27;20209;-62
2021/09/15 08:35:58;;;;;;;13.00;11.60;;;16.10;99.90;;;;;;5123724;27;20213;-47
2021/09/15 08:38:25;;;;;;;12.93;11.07;;;16.00;99.90;;;;;;5120599;27;20207;-59
2021/09/15 08:40:52;;;;;;;13.37;10.87;;;16.00;99.90;;;;;;5121607;27;20219;-51
2021/09/15 08:43:19;;;;;;;21.40;11.70;;;16.00;99.90;;;;;;5114022;27;20204;-59
2021/09/15 08:45:46;;;;;;;12.70;11.17;;;16.00;99.90;;;;;;5112976;27;20815;-53
2021/09/15 08:48:17;;;;;;;12.57;11.37;;;16.10;99.90;;;;;;5123685;27;20202;-48
2021/09/15 08:50:49;;;;;;;17.33;11.37;;;16.10;99.90;;;;;;5112921;27;20205;-49
2021/09/15 08:53:16;;;;;;;14.23;11.90;;;16.10;99.90;;;;;;5118711;27;20237;-59
2021/09/15 08:55:46;;;;;;;14.63;12.13;;;16.10;99.90;;;;;;5115294;27;20296;-49
2021/09/15 08:58:13;;;;;;;17.03;12.57;;;16.10;99.90;;;;;;5108381;27;20605;-52
2021/09/15 09:00:39;;;;;;;15.60;11.90;;;16.20;99.90;;;;;;5107286;27;20196;-48
2021/09/15 09:03:06;;;;;;;17.83;13.13;;;16.20;99.90;;;;;;5107398;27;20189;-53
2021/09/15 09:05:33;;;;;;;14.20;12.70;;;16.30;99.90;;;;;;5100821;27;20228;-60
2021/09/15 09:08:01;;;;;;;14.47;12.70;;;16.30;99.90;;;;;;5115148;27;20204;-51
2021/09/15 09:10:33;;;;;;;13.27;11.87;;;16.30;99.90;;;;;;5113179;27;20212;-63
2021/09/15 09:12:59;;;;;;;13.23;11.97;;;16.30;99.90;;;;;;5107805;27;20201;-50
2021/09/15 09:15:27;;;;;;;14.67;12.03;;;16.30;99.90;;;;;;5117479;27;20220;-59
2021/09/15 09:18:02;;;;;;;17.27;12.30;;;16.30;99.90;;;;;;5122083;27;20196;-48
2021/09/15 09:20:33;;;;;;;12.73;11.40;;;16.30;99.90;;;;;;5099974;27;20280;-58
2021/09/15 09:23:09;;;;;;;14.90;12.33;;;16.30;99.90;;;;;;5120795;27;20200;-52
2021/09/15 09:25:39;;;;;;;13.50;12.07;;;16.30;99.90;;;;;;5105109;27;21069;-49
2021/09/15 09:28:20;;;;;;;16.33;12.53;;;16.30;99.90;;;;;;5124627;27;20205;-48
2021/09/15 09:30:49;;;;;;;15.33;11.63;;;16.30;99.90;;;;;;5119239;27;20227;-52
2021/09/15 09:33:16;;;;;;;12.87;11.47;;;16.30;99.90;;;;;;5123555;27;20745;-58
2021/09/15 09:35:44;;;;;;;13.47;11.43;;;16.40;99.90;;;;;;5097454;27;20254;-49
2021/09/15 09:38:24;;;;;;;18.80;12.70;;;16.40;99.90;;;;;;5113710;27;20200;-48
2021/09/15 09:41:13;;;;;;;13.87;12.57;;;16.30;99.90;;;;;;5109868;27;20265;-53
2021/09/15 09:43:41;;;;;;;14.37;12.20;;;16.30;99.90;;;;;;5110442;27;20329;-50
2021/09/15 09:46:11;;;;;;;15.50;13.57;;;16.30;99.90;;;;;;5112300;27;20216;-51
2021/09/15 09:48:43;;;;;;;14.03;12.63;;;16.40;99.90;;;;;;5110928;27;20905;-49
2021/09/15 09:51:28;;;;;;;13.30;12.00;;;16.30;99.90;;;;;;5105787;27;20204;-50
2021/09/15 09:54:14;;;;;;;20.47;13.13;;;16.40;99.90;;;;;;5120883;27;20207;-47
2021/09/15 09:56:43;;;;;;;16.77;13.40;;;16.40;99.90;;;;;;5109466;27;20209;-52
2021/09/15 09:59:11;;;;;;;14.73;12.50;;;16.40;99.90;;;;;;5123144;27;20256;-49
2021/09/15 10:01:41;;;;;;;15.90;12.70;;;16.40;99.90;;;;;;5107047;27;21217;-48
2021/09/15 10:04:08;;;;;;;17.10;12.93;;;16.40;99.90;;;;;;5115413;27;20193;-48
2021/09/15 10:06:37;;;;;;;14.70;13.20;;;16.50;99.90;;;;;;5103618;27;20219;-52
2021/09/15 10:09:04;;;;;;;17.47;13.20;;;16.50;99.90;;;;;;5123627;27;20697;-53
2021/09/15 10:11:32;;;;;;;13.67;12.23;;;16.60;99.90;;;;;;5120401;28;20200;-59
2021/09/15 10:14:00;;;;;;;13.93;12.63;;;16.60;99.90;;;;;;5116327;27;20192;-50
2021/09/15 10:16:28;;;;;;;15.67;13.40;;;16.60;99.90;;;;;;5119974;27;20215;-58
2021/09/15 10:18:58;;;;;;;16.30;13.70;;;16.60;99.90;;;;;;5117858;27;20208;-48
2021/09/15 10:21:27;;;;;;;14.10;12.80;;;16.60;99.90;;;;;;5102029;27;20208;-52
2021/09/15 10:23:54;;;;;;;15.30;13.47;;;16.60;99.90;;;;;;5125647;27;20802;-58
2021/09/15 10:26:37;;;;;;;15.33;13.77;;;16.70;99.90;;;;;;5115667;27;20740;-49
2021/09/15 10:29:31;;;;;;;15.43;13.53;;;16.70;99.90;;;;;;5106463;27;20587;-59
2021/09/15 10:32:08;;;;;;;16.13;13.80;;;16.70;99.90;;;;;;5119300;27;20202;-60
2021/09/15 10:34:51;;;;;;;18.27;13.43;;;16.70;99.90;;;;;;5118746;27;20231;-50
2021/09/15 10:37:52;;;;;;;16.77;13.80;;;16.80;99.90;;;;;;5104323;27;20219;-50
2021/09/15 10:40:33;;;;;;;16.30;13.90;;;16.70;99.90;;;;;;5113495;27;20382;-53
2021/09/15 10:43:01;;;;;;;14.90;13.40;;;16.80;99.90;;;;;;5109458;27;20734;-59
2021/09/15 10:45:31;;;;;;;17.30;14.70;;;16.80;99.90;;;;;;5115665;27;20211;-53
2021/09/15 10:47:59;;;;;;;15.83;14.20;;;16.80;99.90;;;;;;5110437;27;20203;-50
2021/09/15 10:50:53;;;;;;;16.17;13.37;;;16.80;99.90;;;;;;5115664;27;20216;-60
2021/09/15 10:53:22;;;;;;;16.47;14.07;;;16.90;99.90;;;;;;5108140;27;20205;-53
2021/09/15 10:55:52;;;;;;;16.27;14.57;;;16.90;99.90;;;;;;5116964;27;20874;-53
2021/09/15 10:58:21;;;;;;;16.97;14.30;;;16.90;99.90;;;;;;5129121;27;20206;-53
2021/09/15 11:00:50;;;;;;;18.60;15.03;;;17.00;99.90;;;;;;5127798;27;20920;-49
2021/09/15 11:03:25;;;;;;;20.00;15.63;;;17.00;99.90;;;;;;5130669;27;20193;-54
2021/09/15 11:05:52;;;;;;;22.30;16.13;;;17.00;99.90;;;;;;5108036;27;20961;-55
2021/09/15 11:08:34;;;;;;;17.27;15.40;;;17.00;99.90;;;;;;5117020;27;20242;-48
2021/09/15 11:11:01;;;;;;;17.30;14.93;;;17.10;99.90;;;;;;5122734;27;20269;-47
2021/09/15 11:13:57;;;;;;;16.97;15.10;;;17.10;99.90;;;;;;5109603;27;20205;-59
2021/09/15 11:16:33;;;;;;;16.30;14.60;;;17.10;99.90;;;;;;5128349;27;20225;-59
2021/09/15 11:19:02;;;;;;;17.37;15.47;;;17.10;99.90;;;;;;5107327;27;20912;-53
2021/09/15 11:21:31;;;;;;;15.77;14.17;;;17.10;99.90;;;;;;5111596;27;20197;-50
2021/09/15 11:24:00;;;;;;;21.93;15.60;;;17.10;99.90;;;;;;5125175;27;20193;-47
2021/09/15 11:26:38;;;;;;;17.13;14.90;;;17.20;99.90;;;;;;5103048;27;20790;-54
2021/09/15 11:29:06;;;;;;;18.23;15.87;;;17.20;99.90;;;;;;5110572;27;20192;-49
2021/09/15 11:31:34;;;;;;;16.70;14.67;;;17.20;99.90;;;;;;5113640;27;20203;-48
2021/09/15 11:34:09;;;;;;;17.50;15.70;;;17.20;99.90;;;;;;5117013;27;20224;-52
2021/09/15 11:36:36;;;;;;;18.43;16.43;;;17.30;99.90;;;;;;5113323;27;20224;-50
2021/09/15 11:39:04;;;;;;;19.97;16.73;;;17.30;99.90;;;;;;5121409;27;20204;-47
2021/09/15 11:41:31;;;;;;;20.43;15.73;;;17.30;99.90;;;;;;5101914;27;20904;-52
2021/09/15 11:43:58;;;;;;;18.60;16.70;;;17.20;99.90;;;;;;5126884;27;20688;-47
2021/09/15 11:46:33;;;;;;;19.63;16.50;;;17.20;99.90;;;;;;5115544;27;20228;-59
2021/09/15 11:49:00;;;;;;;18.00;16.17;;;17.30;99.90;;;;;;5112501;27;20253;-47
2021/09/15 11:51:27;;;;;;;21.77;18.10;;;17.30;99.90;;;;;;5109671;27;20212;-54
2021/09/15 11:53:58;;;;;;;18.73;16.43;;;17.30;99.90;;;;;;5124531;27;20279;-48
2021/09/15 11:56:30;;;;;;;19.47;16.77;;;17.30;99.90;;;;;;5105982;27;20208;-60
2021/09/15 11:58:57;;;;;;;19.67;17.57;;;17.30;99.90;;;;;;5121360;27;20216;-47
2021/09/15 12:01:25;;;;;;;17.47;15.77;;;17.30;99.90;;;;;;5110057;27;20196;-57
2021/09/15 12:03:55;;;;;;;18.07;16.23;;;17.30;99.90;;;;;;5121238;27;20688;-49
2021/09/15 12:06:22;;;;;;;19.60;16.47;;;17.30;99.90;;;;;;5116455;27;20293;-59
2021/09/15 12:08:49;;;;;;;18.77;16.67;;;17.40;99.90;;;;;;5105712;27;20197;-49
2021/09/15 12:11:17;;;;;;;19.50;17.57;;;17.40;99.90;;;;;;5110567;27;20216;-61
2021/09/15 12:13:43;;;;;;;20.00;16.70;;;17.40;99.90;;;;;;5114097;27;20185;-47
2021/09/15 12:16:10;;;;;;;20.13;16.57;;;17.40;99.90;;;;;;5130488;27;20212;-58
2021/09/15 12:18:39;;;;;;;19.43;16.20;;;17.40;99.90;;;;;;5124298;27;20197;-52
2021/09/15 12:21:14;;;;;;;19.63;17.63;;;17.40;99.90;;;;;;5105431;27;20216;-47
2021/09/15 12:23:41;;;;;;;18.67;16.77;;;17.40;99.90;;;;;;5124602;27;20911;-47
2021/09/15 12:26:08;;;;;;;19.40;16.23;;;17.40;99.90;;;;;;5111991;27;20213;-57
2021/09/15 12:28:35;;;;;;;18.43;16.43;;;17.40;99.90;;;;;;5102343;27;20193;-50
2021/09/15 12:31:03;;;;;;;20.97;16.87;;;17.40;99.90;;;;;;5124157;27;20219;-48
2021/09/15 12:33:34;;;;;;;17.03;15.20;;;17.40;99.90;;;;;;5116328;27;20200;-52
2021/09/15 12:36:13;;;;;;;18.37;16.43;;;17.40;99.90;;;;;;5111270;27;20217;-52
2021/09/15 12:38:48;;;;;;;18.40;16.47;;;17.40;99.90;;;;;;5122328;27;20192;-59
2021/09/15 12:41:15;;;;;;;18.03;15.57;;;17.40;99.90;;;;;;5109600;27;20204;-54
2021/09/15 12:43:41;;;;;;;20.17;17.20;;;17.40;99.90;;;;;;5105078;27;20648;-51
2021/09/15 12:46:23;;;;;;;20.37;18.17;;;17.50;99.90;;;;;;5108891;27;20938;-47
2021/09/15 12:48:50;;;;;;;18.93;17.03;;;17.50;99.90;;;;;;5110276;27;20289;-60
2021/09/15 12:51:19;;;;;;;19.77;17.67;;;17.50;99.90;;;;;;5118034;27;20243;-48
2021/09/15 12:53:49;;;;;;;20.03;16.80;;;17.40;99.90;;;;;;5107360;27;20204;-57
2021/09/15 12:56:17;;;;;;;23.53;17.33;;;17.40;99.90;;;;;;5111728;27;20235;-47
2021/09/15 12:58:43;;;;;;;19.30;17.10;;;17.40;99.90;;;;;;5108686;27;20200;-61
2021/09/15 13:01:19;;;;;;;21.47;17.43;;;17.40;99.90;;;;;;5107537;27;20700;-49